Time;durP1;ratioP1;P1;durP2;ratioP2;P2;SDS_P1;SDS_P2;PMS_P1;PMS_P2;Temp;Humidity;BMP_temperature;BMP_pressure;BME280_temperature;BME280_humidity;BME280_pressure;Samples;Min_cycle;Max_cycle;Signal;HPM_P1;HPM_P2
2023/04/20 00:01:45;;;;;;;5.85;3.08;;;6.50;96.20;;;;;;5027003;28;20049;-59
2023/04/20 00:04:12;;;;;;;9.25;3.72;;;6.40;96.00;;;;;;5034272;28;20113;-59
2023/04/20 00:06:38;;;;;;;5.65;3.67;;;6.40;96.10;;;;;;5036081;28;20076;-58
2023/04/20 00:09:03;;;;;;;6.80;3.38;;;6.40;96.40;;;;;;5036992;28;20045;-59
2023/04/20 00:11:29;;;;;;;5.93;3.33;;;6.40;96.80;;;;;;5035773;28;20328;-58
2023/04/20 00:13:55;;;;;;;5.15;3.33;;;6.40;97.10;;;;;;5039246;28;20077;-58
2023/04/20 00:16:21;;;;;;;5.88;3.38;;;6.40;97.90;;;;;;5040200;28;20058;-59
2023/04/20 00:18:47;;;;;;;5.55;3.42;;;6.40;98.30;;;;;;5040312;28;20052;-60
2023/04/20 00:21:13;;;;;;;5.22;3.33;;;6.40;98.00;;;;;;5011711;28;20042;-60
2023/04/20 00:23:40;;;;;;;5.35;3.53;;;6.40;97.90;;;;;;5039507;28;20255;-58
2023/04/20 00:26:06;;;;;;;5.97;3.45;;;6.40;97.90;;;;;;5040445;28;20553;-59
2023/04/20 00:28:32;;;;;;;15.07;3.65;;;6.40;98.50;;;;;;5039603;28;20095;-56
2023/04/20 00:30:58;;;;;;;9.13;3.70;;;6.50;99.40;;;;;;5040266;28;20054;-58
2023/04/20 00:33:23;;;;;;;4.93;3.33;;;6.50;99.30;;;;;;5039898;28;20672;-59
2023/04/20 00:35:49;;;;;;;6.53;3.92;;;6.50;99.70;;;;;;5039481;28;20041;-61
2023/04/20 00:38:15;;;;;;;7.75;3.47;;;6.40;99.80;;;;;;5038958;28;20054;-58
2023/04/20 00:40:47;;;;;;;7.25;3.47;;;6.60;99.60;;;;;;5019344;28;20052;-58
2023/04/20 00:43:14;;;;;;;4.55;3.28;;;6.50;99.90;;;;;;5012586;28;20041;-59
2023/04/20 00:45:40;;;;;;;5.28;3.58;;;6.50;99.70;;;;;;5037813;28;20045;-57
2023/04/20 00:48:06;;;;;;;5.50;3.38;;;6.50;99.90;;;;;;5022537;28;20064;-58
2023/04/20 00:50:33;;;;;;;6.72;3.28;;;6.50;99.90;;;;;;5040378;28;20045;-59
2023/04/20 00:53:00;;;;;;;6.85;3.50;;;6.50;99.90;;;;;;5037984;28;20038;-59
2023/04/20 00:55:27;;;;;;;4.97;3.20;;;6.40;99.90;;;;;;5039498;28;20632;-60
2023/04/20 00:57:52;;;;;;;8.75;3.70;;;6.40;99.90;;;;;;5037372;28;20105;-59
2023/04/20 01:00:19;;;;;;;8.05;3.92;;;6.40;99.90;;;;;;5037742;28;20046;-59
2023/04/20 01:02:45;;;;;;;5.28;3.45;;;6.40;99.90;;;;;;5036753;28;20053;-59
2023/04/20 01:05:11;;;;;;;5.55;3.70;;;6.30;99.90;;;;;;5038449;28;20068;-58
2023/04/20 01:07:36;;;;;;;7.38;3.55;;;6.40;99.90;;;;;;5041526;28;20049;-59
2023/04/20 01:10:03;;;;;;;7.63;3.35;;;6.20;99.90;;;;;;5039451;28;20073;-60
2023/04/20 01:12:28;;;;;;;4.85;3.30;;;6.10;99.90;;;;;;5041168;28;20033;-59
2023/04/20 01:14:54;;;;;;;6.63;3.40;;;6.10;99.90;;;;;;5039817;28;20084;-58
2023/04/20 01:17:21;;;;;;;6.00;3.47;;;6.20;99.90;;;;;;5039841;28;20075;-59
2023/04/20 01:19:47;;;;;;;6.38;4.05;;;6.10;99.90;;;;;;5021877;28;20089;-59
2023/04/20 01:22:20;;;;;;;7.45;3.78;;;6.10;99.90;;;;;;5039359;28;20046;-59
2023/04/20 01:24:46;;;;;;;7.45;3.60;;;6.00;99.90;;;;;;5047847;28;20038;-59
2023/04/20 01:27:13;;;;;;;5.97;3.92;;;6.10;99.90;;;;;;5008656;28;20394;-58
2023/04/20 01:29:39;;;;;;;7.40;3.70;;;6.00;99.90;;;;;;5039496;28;20042;-60
2023/04/20 01:32:05;;;;;;;5.80;3.63;;;6.00;99.90;;;;;;5039195;28;20107;-59
2023/04/20 01:34:31;;;;;;;7.57;3.90;;;6.00;99.90;;;;;;5038943;28;20087;-60
2023/04/20 01:36:57;;;;;;;7.07;3.80;;;6.20;99.90;;;;;;5039391;28;20178;-59
2023/04/20 01:39:23;;;;;;;7.78;3.75;;;6.20;99.90;;;;;;5036113;28;20053;-59
2023/04/20 01:41:49;;;;;;;7.55;3.70;;;6.20;99.90;;;;;;5039814;28;20542;-59
2023/04/20 01:44:15;;;;;;;7.63;3.38;;;6.20;99.90;;;;;;5029601;28;20037;-59
2023/04/20 01:46:40;;;;;;;5.97;3.58;;;6.20;99.90;;;;;;5038889;28;20030;-59
2023/04/20 01:49:06;;;;;;;5.25;3.75;;;6.20;99.90;;;;;;5020360;28;20459;-59
2023/04/20 01:51:33;;;;;;;5.32;3.08;;;6.30;99.90;;;;;;5015656;28;20049;-59
2023/04/20 01:54:00;;;;;;;6.20;3.22;;;6.30;99.90;;;;;;5037586;28;20045;-58
2023/04/20 01:56:25;;;;;;;7.68;3.35;;;6.40;99.90;;;;;;5039066;28;20049;-60
2023/04/20 01:58:51;;;;;;;8.90;3.17;;;6.50;99.90;;;;;;5035593;28;20508;-59
2023/04/20 02:01:17;;;;;;;9.82;3.45;;;6.50;99.90;;;;;;5036488;28;20037;-58
2023/04/20 02:03:42;;;;;;;4.65;3.08;;;6.60;99.90;;;;;;5029195;28;20025;-59
2023/04/20 02:06:08;;;;;;;6.93;3.25;;;6.70;99.90;;;;;;5035570;28;20076;-58
2023/04/20 02:08:34;;;;;;;8.25;3.22;;;6.70;99.90;;;;;;5032789;28;20045;-58
2023/04/20 02:11:00;;;;;;;4.95;2.72;;;6.70;99.90;;;;;;5036359;28;20129;-58
2023/04/20 02:13:26;;;;;;;5.65;2.95;;;6.80;99.90;;;;;;5035201;28;20038;-59
2023/04/20 02:15:52;;;;;;;6.72;2.92;;;6.80;99.90;;;;;;5019585;28;20077;-58
2023/04/20 02:18:18;;;;;;;5.68;3.45;;;6.10;99.90;;;;;;5033772;28;20050;-58
2023/04/20 02:20:45;;;;;;;4.65;2.80;;;6.90;99.90;;;;;;5038372;28;20606;-59
2023/04/20 02:23:11;;;;;;;5.75;3.38;;;6.90;99.90;;;;;;5037170;28;20409;-58
2023/04/20 02:25:37;;;;;;;6.20;2.80;;;6.90;99.90;;;;;;5033874;28;20417;-59
2023/04/20 02:28:03;;;;;;;7.78;3.10;;;7.00;99.90;;;;;;5019231;28;20037;-58
2023/04/20 02:30:29;;;;;;;4.40;2.90;;;6.90;99.90;;;;;;5037417;28;20059;-60
2023/04/20 02:32:55;;;;;;;5.05;2.85;;;6.90;99.90;;;;;;5011177;28;20045;-60
2023/04/20 02:35:21;;;;;;;5.13;2.97;;;6.80;99.90;;;;;;5037778;28;20104;-59
2023/04/20 02:37:47;;;;;;;6.20;3.20;;;6.80;99.90;;;;;;5038066;28;20504;-58
2023/04/20 02:40:13;;;;;;;4.45;2.80;;;6.80;99.90;;;;;;5036706;28;20041;-58
2023/04/20 02:42:39;;;;;;;7.05;2.53;;;6.80;99.90;;;;;;5037472;28;20112;-58
2023/04/20 02:45:05;;;;;;;6.28;2.90;;;6.80;99.90;;;;;;5038258;28;20049;-58
2023/04/20 02:47:31;;;;;;;4.35;2.83;;;6.90;99.90;;;;;;5037966;28;20080;-59
2023/04/20 02:49:57;;;;;;;4.95;2.58;;;6.80;99.90;;;;;;5037709;28;20049;-58
2023/04/20 02:52:23;;;;;;;8.05;3.00;;;6.90;99.90;;;;;;5016709;28;20203;-58
2023/04/20 02:54:48;;;;;;;5.63;2.50;;;6.90;99.90;;;;;;5035110;28;20056;-59
2023/04/20 02:57:14;;;;;;;8.32;2.78;;;6.90;99.90;;;;;;5032193;28;20038;-58
2023/04/20 02:59:40;;;;;;;6.20;2.47;;;6.90;99.90;;;;;;5029747;28;20041;-59
2023/04/20 03:02:05;;;;;;;4.97;2.80;;;7.00;99.90;;;;;;5036609;28;20096;-58
2023/04/20 03:04:31;;;;;;;8.75;3.00;;;7.00;99.90;;;;;;5036513;28;20137;-58
2023/04/20 03:06:57;;;;;;;6.00;2.80;;;7.00;99.90;;;;;;5036906;28;20050;-58
2023/04/20 03:09:24;;;;;;;6.88;2.55;;;7.00;99.90;;;;;;5034115;28;20025;-58
2023/04/20 03:11:50;;;;;;;4.97;2.40;;;7.00;99.90;;;;;;5042043;28;20037;-58
2023/04/20 03:14:16;;;;;;;6.43;2.67;;;7.00;99.90;;;;;;5027620;28;20092;-59
2023/04/20 03:16:41;;;;;;;7.35;2.50;;;6.90;99.90;;;;;;5039578;28;20059;-59
2023/04/20 03:19:07;;;;;;;7.05;3.10;;;6.90;99.90;;;;;;5034374;28;20045;-59
2023/04/20 03:21:33;;;;;;;3.97;2.40;;;6.90;99.90;;;;;;5033749;28;20069;-59
2023/04/20 03:23:59;;;;;;;5.18;2.03;;;6.90;99.90;;;;;;5037073;28;20044;-59
2023/04/20 03:26:25;;;;;;;5.20;2.67;;;6.90;99.90;;;;;;5018877;28;20130;-58
2023/04/20 03:28:51;;;;;;;5.35;2.47;;;6.90;99.90;;;;;;5032023;28;20033;-59
2023/04/20 03:31:17;;;;;;;5.30;2.30;;;6.90;99.90;;;;;;5035726;28;20042;-59
2023/04/20 03:33:43;;;;;;;3.95;2.42;;;7.00;99.90;;;;;;5037643;28;20037;-59
2023/04/20 03:36:10;;;;;;;5.32;2.42;;;7.10;99.90;;;;;;5037063;28;20040;-59
2023/04/20 03:38:35;;;;;;;3.70;2.00;;;7.30;99.90;;;;;;5033332;28;20521;-59
2023/04/20 03:41:01;;;;;;;5.10;2.10;;;7.20;99.90;;;;;;5023971;28;20038;-59
2023/04/20 03:43:27;;;;;;;4.28;2.38;;;7.30;99.90;;;;;;5020618;28;20038;-59
2023/04/20 03:45:54;;;;;;;4.20;2.25;;;7.30;99.90;;;;;;5026197;28;20041;-58
2023/04/20 03:48:20;;;;;;;5.15;2.22;;;7.40;99.90;;;;;;5035330;28;20037;-59
2023/04/20 03:50:45;;;;;;;8.68;2.22;;;7.50;99.90;;;;;;5039399;28;20041;-59
2023/04/20 03:53:11;;;;;;;5.53;2.20;;;7.50;99.90;;;;;;5036927;28;20049;-59
2023/04/20 03:55:36;;;;;;;5.88;2.10;;;7.70;99.90;;;;;;5028896;28;20144;-62
2023/04/20 03:58:04;;;;;;;7.32;2.08;;;7.60;99.90;;;;;;5014608;28;20481;-59
2023/04/20 04:00:30;;;;;;;5.82;2.28;;;7.70;99.90;;;;;;5030158;28;20038;-59
2023/04/20 04:02:55;;;;;;;7.70;2.35;;;7.70;99.90;;;;;;5014898;28;20048;-59
2023/04/20 04:05:21;;;;;;;3.90;2.00;;;7.70;99.90;;;;;;5030531;28;20054;-59
2023/04/20 04:07:47;;;;;;;7.07;2.53;;;7.70;99.90;;;;;;5039779;28;20037;-59
2023/04/20 04:10:13;;;;;;;4.20;2.33;;;7.80;99.90;;;;;;5029920;28;20046;-59
2023/04/20 04:12:38;;;;;;;6.78;2.63;;;7.80;99.90;;;;;;5030496;28;20067;-60
2023/04/20 04:15:05;;;;;;;6.82;2.30;;;7.80;99.90;;;;;;5030901;28;20045;-58
2023/04/20 04:17:30;;;;;;;5.07;2.22;;;7.80;99.90;;;;;;5035319;28;20049;-60
2023/04/20 04:19:56;;;;;;;4.40;2.00;;;7.80;99.90;;;;;;5024466;28;20122;-58
2023/04/20 04:22:21;;;;;;;8.48;2.35;;;7.80;99.90;;;;;;5037633;28;20037;-60
2023/04/20 04:24:47;;;;;;;4.05;2.38;;;7.80;99.90;;;;;;5032950;28;20029;-59
2023/04/20 04:27:14;;;;;;;6.30;2.30;;;7.80;99.90;;;;;;5034331;28;20042;-59
2023/04/20 04:29:40;;;;;;;6.65;2.25;;;7.80;99.90;;;;;;5028262;28;20453;-59
2023/04/20 04:32:06;;;;;;;6.43;2.30;;;7.80;99.90;;;;;;5030424;28;20050;-59
2023/04/20 04:34:33;;;;;;;3.95;2.10;;;7.90;99.90;;;;;;5025968;28;20117;-59
2023/04/20 04:37:00;;;;;;;4.43;2.60;;;7.80;99.90;;;;;;5026568;28;20049;-60
2023/04/20 04:39:27;;;;;;;8.00;2.40;;;7.80;99.90;;;;;;5017120;28;20069;-57
2023/04/20 04:41:53;;;;;;;6.60;2.67;;;7.80;99.90;;;;;;5026677;28;20385;-58
2023/04/20 04:44:20;;;;;;;7.22;2.38;;;7.80;99.90;;;;;;5033061;28;20041;-59
2023/04/20 04:46:46;;;;;;;4.10;2.80;;;7.80;99.90;;;;;;5027330;28;20088;-58
2023/04/20 04:49:12;;;;;;;6.15;2.15;;;7.70;99.90;;;;;;5039070;28;20034;-57
2023/04/20 04:51:38;;;;;;;6.18;2.45;;;7.70;99.90;;;;;;5030007;28;20414;-58
2023/04/20 04:54:04;;;;;;;5.18;2.38;;;7.70;99.90;;;;;;5029127;28;20045;-58
2023/04/20 04:56:30;;;;;;;5.57;2.20;;;7.70;99.90;;;;;;5006359;28;20045;-58
2023/04/20 04:58:55;;;;;;;5.25;2.53;;;7.70;99.90;;;;;;5037744;28;20244;-58
2023/04/20 05:01:21;;;;;;;7.63;2.63;;;7.60;99.90;;;;;;5035060;28;20045;-60
2023/04/20 05:03:47;;;;;;;6.10;2.35;;;7.60;99.90;;;;;;5035918;28;20045;-59
2023/04/20 05:06:12;;;;;;;5.05;2.40;;;7.50;99.90;;;;;;4991226;28;20464;-59
2023/04/20 05:08:38;;;;;;;6.72;2.35;;;7.50;99.90;;;;;;4998678;28;20572;-60
2023/04/20 05:11:04;;;;;;;6.80;2.50;;;7.50;99.90;;;;;;4998175;28;20053;-59
2023/04/20 05:13:29;;;;;;;9.23;2.58;;;7.50;99.90;;;;;;5000206;28;20050;-59
2023/04/20 05:15:55;;;;;;;5.30;2.30;;;7.50;99.90;;;;;;5000349;28;20108;-58
2023/04/20 05:18:21;;;;;;;4.80;2.35;;;7.50;99.90;;;;;;4998478;28;20046;-59
2023/04/20 05:20:46;;;;;;;5.45;2.70;;;7.40;99.90;;;;;;5000750;28;20108;-59
2023/04/20 05:23:12;;;;;;;5.68;2.55;;;7.50;99.90;;;;;;4997451;28;20077;-58
2023/04/20 05:25:38;;;;;;;3.80;2.47;;;7.40;99.90;;;;;;4997378;28;20077;-58
2023/04/20 05:28:04;;;;;;;6.88;2.60;;;7.40;99.90;;;;;;4998980;28;20042;-59
2023/04/20 05:30:30;;;;;;;4.47;2.40;;;7.40;99.90;;;;;;4997905;28;20050;-59
2023/04/20 05:32:55;;;;;;;5.38;3.08;;;7.40;99.90;;;;;;4997570;28;20089;-59
2023/04/20 05:35:21;;;;;;;5.15;2.78;;;7.40;99.90;;;;;;5000097;28;20391;-60
2023/04/20 05:37:47;;;;;;;4.82;2.60;;;7.40;99.90;;;;;;4998517;28;20035;-58
2023/04/20 05:40:14;;;;;;;9.07;2.95;;;7.40;99.90;;;;;;4993339;28;20092;-59
2023/04/20 05:42:40;;;;;;;4.97;2.72;;;7.40;99.90;;;;;;4998143;28;20508;-59
2023/04/20 05:45:06;;;;;;;7.88;3.00;;;7.40;99.90;;;;;;4998112;28;20133;-58
2023/04/20 05:47:32;;;;;;;4.65;2.65;;;7.40;99.90;;;;;;4998108;28;20548;-58
2023/04/20 05:49:58;;;;;;;5.82;2.58;;;7.40;99.90;;;;;;4994473;28;20046;-58
2023/04/20 05:52:23;;;;;;;4.07;2.42;;;7.40;99.90;;;;;;4994327;28;20423;-58
2023/04/20 05:54:49;;;;;;;4.10;2.60;;;7.40;99.90;;;;;;4998617;28;20141;-58
2023/04/20 05:57:15;;;;;;;6.47;2.58;;;7.40;99.90;;;;;;4997738;28;20048;-58
2023/04/20 05:59:40;;;;;;;6.13;2.40;;;7.40;99.90;;;;;;4985697;28;20086;-58
2023/04/20 06:02:06;;;;;;;4.75;2.50;;;7.80;99.90;;;;;;4996645;28;20137;-58
2023/04/20 06:04:32;;;;;;;7.65;3.00;;;7.40;99.90;;;;;;4992086;28;20039;-57
2023/04/20 06:06:59;;;;;;;6.38;2.42;;;7.40;99.90;;;;;;5032586;28;20064;-59
2023/04/20 06:09:25;;;;;;;7.72;2.40;;;7.40;99.90;;;;;;5031348;28;20050;-58
2023/04/20 06:11:50;;;;;;;3.97;2.10;;;7.40;99.90;;;;;;5039858;28;20137;-58
2023/04/20 06:14:16;;;;;;;6.53;2.60;;;7.50;99.90;;;;;;5030217;28;20046;-58
2023/04/20 06:16:42;;;;;;;3.30;2.10;;;7.40;99.90;;;;;;5039391;28;20041;-58
2023/04/20 06:19:07;;;;;;;3.67;2.38;;;7.40;99.90;;;;;;5032373;28;20049;-58
2023/04/20 06:21:35;;;;;;;4.45;2.60;;;7.40;99.90;;;;;;5038586;28;20038;-58
2023/04/20 06:24:00;;;;;;;4.88;2.38;;;7.40;99.90;;;;;;5034960;28;20054;-58
2023/04/20 06:26:26;;;;;;;6.30;2.80;;;7.40;99.90;;;;;;5033768;28;20049;-59
2023/04/20 06:28:52;;;;;;;4.88;2.58;;;7.30;99.90;;;;;;5030637;28;20087;-59
2023/04/20 06:31:18;;;;;;;6.78;4.20;;;7.30;99.90;;;;;;5014941;28;20049;-60
2023/04/20 06:33:44;;;;;;;8.60;2.80;;;7.20;99.90;;;;;;5039562;28;20437;-60
2023/04/20 06:36:10;;;;;;;5.70;3.03;;;7.20;99.90;;;;;;5037386;28;20049;-60
2023/04/20 06:38:36;;;;;;;7.70;3.28;;;7.20;99.90;;;;;;5038302;28;20134;-60
2023/04/20 06:41:02;;;;;;;6.55;3.58;;;7.10;99.90;;;;;;5031092;28;20072;-59
2023/04/20 06:43:28;;;;;;;8.40;3.47;;;7.00;99.90;;;;;;5036714;28;20124;-59
2023/04/20 06:45:54;;;;;;;5.45;3.10;;;6.90;99.90;;;;;;5045245;28;20052;-59
2023/04/20 06:48:20;;;;;;;5.35;2.90;;;7.00;99.90;;;;;;5032583;28;20044;-59
2023/04/20 06:50:49;;;;;;;5.32;3.15;;;6.90;99.90;;;;;;5037006;28;20045;-60
2023/04/20 06:53:17;;;;;;;5.97;3.00;;;6.80;99.90;;;;;;5031379;28;20064;-60
2023/04/20 06:55:44;;;;;;;5.45;3.05;;;6.70;99.90;;;;;;5031891;28;20041;-60
2023/04/20 06:58:09;;;;;;;5.57;3.10;;;6.60;99.90;;;;;;5031398;28;20038;-60
2023/04/20 07:00:35;;;;;;;6.22;3.33;;;6.50;99.90;;;;;;5030673;28;20088;-58
2023/04/20 07:03:01;;;;;;;6.13;3.08;;;6.40;99.90;;;;;;5023789;28;20066;-60
2023/04/20 07:05:27;;;;;;;5.57;3.15;;;6.40;99.90;;;;;;5027316;28;20130;-60
2023/04/20 07:07:54;;;;;;;5.00;2.85;;;6.30;99.90;;;;;;5029275;28;20072;-58
2023/04/20 07:10:19;;;;;;;7.63;2.92;;;6.30;99.90;;;;;;5030916;28;20115;-60
2023/04/20 07:12:45;;;;;;;6.22;3.40;;;6.30;99.90;;;;;;5027915;28;20498;-59
2023/04/20 07:15:12;;;;;;;5.57;3.13;;;6.40;99.90;;;;;;5036354;28;20071;-59
2023/04/20 07:17:37;;;;;;;5.55;3.53;;;6.50;99.90;;;;;;5008591;28;20037;-60
2023/04/20 07:20:07;;;;;;;6.85;3.38;;;6.30;99.90;;;;;;5027448;28;21071;-60
2023/04/20 07:22:36;;;;;;;5.60;4.00;;;6.40;99.90;;;;;;5002539;28;20049;-60
2023/04/20 07:25:04;;;;;;;5.53;3.65;;;6.40;99.90;;;;;;5029251;28;20041;-59
2023/04/20 07:27:35;;;;;;;6.72;3.72;;;6.40;99.90;;;;;;5026327;28;20042;-59
2023/04/20 07:30:01;;;;;;;5.22;4.07;;;6.50;99.90;;;;;;4998877;28;20049;-59
2023/04/20 07:32:26;;;;;;;6.80;3.80;;;6.50;99.90;;;;;;5032949;28;20080;-59
2023/04/20 07:34:52;;;;;;;5.57;3.83;;;6.40;99.90;;;;;;5033681;28;20092;-58
2023/04/20 07:37:18;;;;;;;5.03;3.05;;;6.40;99.90;;;;;;5010227;28;20038;-60
2023/04/20 07:39:44;;;;;;;5.40;3.13;;;6.40;99.90;;;;;;4996746;28;20068;-60
2023/04/20 07:42:09;;;;;;;5.15;3.17;;;6.40;99.90;;;;;;5032934;28;20097;-59
2023/04/20 07:44:36;;;;;;;6.40;3.50;;;6.50;99.90;;;;;;5020986;28;20049;-60
2023/04/20 07:47:02;;;;;;;6.40;3.10;;;6.50;99.90;;;;;;5027166;28;20521;-59
2023/04/20 07:49:28;;;;;;;4.68;3.20;;;6.60;99.90;;;;;;5029196;28;20037;-59
2023/04/20 07:51:54;;;;;;;8.43;3.50;;;6.60;99.90;;;;;;5027866;28;20080;-58
2023/04/20 07:54:19;;;;;;;5.50;3.60;;;6.60;99.90;;;;;;5001312;28;20046;-60
2023/04/20 07:56:45;;;;;;;7.57;3.97;;;6.60;99.90;;;;;;5027283;28;20030;-58
2023/04/20 07:59:11;;;;;;;6.63;3.22;;;6.60;99.90;;;;;;5025529;28;20056;-60
2023/04/20 08:01:36;;;;;;;7.18;3.78;;;6.70;99.90;;;;;;5027096;28;20041;-60
2023/04/20 08:04:02;;;;;;;7.65;3.60;;;6.80;99.90;;;;;;5034905;28;20041;-60
2023/04/20 08:06:28;;;;;;;6.10;3.50;;;6.80;99.90;;;;;;5033100;28;20103;-61
2023/04/20 08:08:54;;;;;;;7.65;4.10;;;6.80;99.90;;;;;;5031967;28;20045;-59
2023/04/20 08:11:20;;;;;;;5.40;3.80;;;6.90;99.90;;;;;;5029806;28;20037;-59
2023/04/20 08:13:46;;;;;;;8.98;3.70;;;7.00;99.90;;;;;;5027394;28;20133;-59
2023/04/20 08:16:12;;;;;;;7.35;3.70;;;7.00;99.90;;;;;;5031285;28;20077;-60
2023/04/20 08:18:37;;;;;;;9.68;4.28;;;7.10;99.90;;;;;;5029385;28;20038;-60
2023/04/20 08:21:03;;;;;;;8.75;3.92;;;7.20;99.90;;;;;;5032893;28;20056;-59
2023/04/20 08:23:29;;;;;;;5.55;3.60;;;7.30;99.90;;;;;;5035742;28;20596;-60
2023/04/20 08:25:54;;;;;;;6.10;3.75;;;7.40;99.90;;;;;;5009928;28;20057;-58
2023/04/20 08:28:21;;;;;;;7.95;4.07;;;7.40;99.90;;;;;;5033356;28;20095;-59
2023/04/20 08:30:47;;;;;;;6.40;3.83;;;7.50;99.90;;;;;;5018556;28;20043;-58
2023/04/20 08:33:12;;;;;;;6.55;3.92;;;7.60;99.90;;;;;;5034760;28;20065;-60
2023/04/20 08:35:38;;;;;;;8.95;3.90;;;7.70;99.90;;;;;;5011481;28;20033;-59
2023/04/20 08:38:04;;;;;;;8.23;3.80;;;7.70;99.90;;;;;;5040552;28;20038;-59
2023/04/20 08:40:30;;;;;;;10.52;4.20;;;7.80;99.90;;;;;;5020829;28;20045;-61
2023/04/20 08:42:58;;;;;;;8.77;4.43;;;7.90;99.90;;;;;;5030589;28;20049;-61
2023/04/20 08:45:25;;;;;;;8.73;4.30;;;7.90;99.90;;;;;;5028362;28;20520;-60
2023/04/20 08:47:52;;;;;;;11.48;5.05;;;7.90;99.90;;;;;;5009000;28;20076;-61
2023/04/20 08:50:21;;;;;;;6.50;4.25;;;8.00;99.90;;;;;;5039622;28;20710;-59
2023/04/20 08:52:46;;;;;;;8.35;4.50;;;8.10;99.90;;;;;;5015198;28;20046;-60
2023/04/20 08:55:19;;;;;;;9.35;4.53;;;8.10;99.90;;;;;;5037796;28;20102;-60
2023/04/20 08:57:48;;;;;;;10.80;4.40;;;8.10;99.90;;;;;;5031730;28;20042;-60
2023/04/20 09:00:14;;;;;;;9.93;5.03;;;8.10;99.90;;;;;;5028790;28;20041;-60
2023/04/20 09:02:50;;;;;;;6.90;4.07;;;8.10;99.90;;;;;;5029238;28;20046;-59
2023/04/20 09:05:23;;;;;;;;;;;8.20;99.90;;;;;;5029064;28;20104;-59
2023/04/20 09:07:53;;;;;;;8.40;4.25;;;8.20;99.90;;;;;;5028139;28;19921;-60
2023/04/20 09:10:19;;;;;;;7.53;4.03;;;8.30;99.90;;;;;;5031995;28;20034;-60
2023/04/20 09:12:45;;;;;;;6.18;4.28;;;8.40;99.90;;;;;;5039231;28;20437;-60
2023/04/20 09:15:22;;;;;;;7.68;4.35;;;8.40;99.90;;;;;;5038348;28;20133;-60
2023/04/20 09:17:48;;;;;;;6.13;4.55;;;8.40;99.90;;;;;;5017166;28;20042;-60
2023/04/20 09:20:13;;;;;;;10.00;4.20;;;8.40;99.90;;;;;;5032641;28;20082;-59
2023/04/20 09:22:40;;;;;;;10.55;4.70;;;8.40;99.90;;;;;;5038436;28;20084;-59
2023/04/20 09:25:16;;;;;;;7.63;4.20;;;8.50;99.90;;;;;;5029789;28;20072;-60
2023/04/20 09:27:41;;;;;;;9.48;4.38;;;8.50;99.90;;;;;;5024471;28;20041;-59
2023/04/20 09:30:08;;;;;;;8.82;4.47;;;8.50;99.90;;;;;;5036463;28;20052;-61
2023/04/20 09:32:34;;;;;;;9.13;4.40;;;8.50;99.90;;;;;;5015590;28;20076;-62
2023/04/20 09:35:00;;;;;;;8.65;4.72;;;8.80;99.90;;;;;;5030323;28;20056;-60
2023/04/20 09:37:26;;;;;;;10.27;4.68;;;8.90;99.90;;;;;;5027610;28;20096;-60
2023/04/20 09:39:56;;;;;;;7.60;4.50;;;8.90;99.90;;;;;;5017968;28;20082;-60
2023/04/20 09:42:27;;;;;;;9.05;5.10;;;8.80;99.90;;;;;;5030373;28;20869;-60
2023/04/20 09:44:53;;;;;;;9.77;4.70;;;8.80;99.90;;;;;;5032363;28;20100;-59
2023/04/20 09:47:21;;;;;;;9.45;5.18;;;8.80;99.90;;;;;;5008298;28;20120;-59
2023/04/20 09:49:47;;;;;;;8.48;5.30;;;8.80;99.90;;;;;;5014651;28;20042;-59
2023/04/20 09:52:17;;;;;;;10.60;5.13;;;8.80;99.90;;;;;;5026502;28;20110;-59
2023/04/20 09:54:43;;;;;;;10.27;4.70;;;8.90;99.90;;;;;;5038219;28;20049;-59
2023/04/20 09:57:10;;;;;;;11.32;4.75;;;8.90;99.90;;;;;;5015326;28;20049;-60
2023/04/20 09:59:37;;;;;;;7.22;4.95;;;9.00;99.90;;;;;;5039177;28;20053;-60
2023/04/20 10:02:08;;;;;;;10.13;5.05;;;9.00;99.90;;;;;;5025594;28;20379;-60
2023/04/20 10:04:34;;;;;;;8.63;5.25;;;9.10;99.90;;;;;;5037886;28;20052;-60
2023/04/20 10:07:04;;;;;;;10.50;4.47;;;9.20;99.90;;;;;;5036531;28;20057;-60
2023/04/20 10:09:33;;;;;;;11.35;5.25;;;9.40;99.90;;;;;;5038397;28;20052;-61
2023/04/20 10:12:08;;;;;;;11.70;5.32;;;9.40;99.90;;;;;;5038570;28;20056;-60
2023/04/20 10:14:34;;;;;;;7.07;4.70;;;9.50;99.90;;;;;;5034548;28;20048;-59
2023/04/20 10:17:05;;;;;;;9.13;5.10;;;9.50;99.90;;;;;;5012253;28;20046;-60
2023/04/20 10:19:40;;;;;;;9.25;4.88;;;9.70;99.90;;;;;;5033190;28;20045;-58
2023/04/20 10:22:08;;;;;;;8.48;5.05;;;9.90;99.90;;;;;;5028686;28;20110;-60
2023/04/20 10:24:34;;;;;;;9.13;5.22;;;10.10;99.90;;;;;;5013437;28;20512;-59
2023/04/20 10:27:02;;;;;;;11.68;5.40;;;10.40;99.90;;;;;;4986247;28;20402;-58
2023/04/20 10:29:30;;;;;;;8.55;5.75;;;10.60;99.90;;;;;;5035021;28;20052;-59
2023/04/20 10:31:56;;;;;;;10.18;5.55;;;11.00;99.90;;;;;;5023039;28;20088;-59
2023/04/20 10:34:34;;;;;;;7.35;4.80;;;11.20;99.90;;;;;;5034953;28;20038;-59
2023/04/20 10:37:11;;;;;;;9.25;5.30;;;11.30;99.90;;;;;;5020964;28;20394;-58
2023/04/20 10:39:47;;;;;;;9.90;5.55;;;11.30;99.90;;;;;;5028556;28;20073;-58
2023/04/20 10:42:13;;;;;;;7.10;4.97;;;11.20;99.90;;;;;;5038521;28;20053;-59
2023/04/20 10:44:52;;;;;;;8.95;5.32;;;11.10;99.90;;;;;;5036694;28;20049;-59
2023/04/20 10:47:39;;;;;;;7.53;4.78;;;11.10;99.90;;;;;;5034716;28;20048;-59
2023/04/20 10:50:06;;;;;;;;;;;11.20;99.90;;;;;;5027743;28;20046;-57
2023/04/20 10:52:37;;;;;;;8.00;5.38;;;11.30;99.90;;;;;;5035494;28;19927;-59
2023/04/20 10:55:05;;;;;;;9.82;5.63;;;11.40;99.90;;;;;;5037801;28;20442;-59
2023/04/20 10:57:31;;;;;;;9.60;5.80;;;11.40;99.90;;;;;;5036375;28;20136;-59
2023/04/20 10:59:57;;;;;;;9.18;6.03;;;11.40;99.90;;;;;;5034166;28;20084;-59
2023/04/20 11:02:23;;;;;;;9.55;5.22;;;11.40;99.90;;;;;;5029542;28;20041;-58
2023/04/20 11:04:48;;;;;;;9.15;5.40;;;11.30;99.90;;;;;;5020734;28;20046;-59
2023/04/20 11:07:14;;;;;;;9.35;6.05;;;11.30;99.90;;;;;;5008890;28;20042;-59
2023/04/20 11:09:41;;;;;;;10.18;5.93;;;11.20;99.90;;;;;;5027403;28;20048;-59
2023/04/20 11:12:13;;;;;;;7.53;6.25;;;11.30;99.90;;;;;;5035831;28;20041;-58
2023/04/20 11:14:54;;;;;;;10.05;6.38;;;11.50;99.90;;;;;;5032386;28;20069;-59
2023/04/20 11:17:31;;;;;;;10.75;5.68;;;11.80;99.90;;;;;;5028458;28;20041;-59
2023/04/20 11:20:15;;;;;;;9.98;6.22;;;12.10;99.90;;;;;;5034328;28;20085;-58
2023/04/20 11:22:42;;;;;;;8.40;6.57;;;12.10;99.90;;;;;;5010575;28;20042;-61
2023/04/20 11:25:09;;;;;;;10.40;6.97;;;12.10;99.90;;;;;;5017018;28;20090;-58
2023/04/20 11:27:37;;;;;;;9.48;6.45;;;12.10;99.90;;;;;;5030663;28;20042;-58
2023/04/20 11:30:04;;;;;;;10.48;6.30;;;12.30;99.90;;;;;;5018948;28;20046;-57
2023/04/20 11:32:31;;;;;;;8.00;6.10;;;12.40;99.90;;;;;;5019161;28;20088;-59
2023/04/20 11:35:00;;;;;;;11.15;6.97;;;12.40;99.90;;;;;;5018834;28;20056;-58
2023/04/20 11:37:27;;;;;;;10.32;6.75;;;12.40;99.90;;;;;;5019384;28;20053;-59
2023/04/20 11:40:06;;;;;;;8.55;6.47;;;12.60;99.90;;;;;;5019022;28;20085;-59
2023/04/20 11:42:31;;;;;;;11.05;7.05;;;12.80;99.90;;;;;;5019372;28;20121;-58
2023/04/20 11:44:58;;;;;;;8.40;6.03;;;12.90;99.90;;;;;;5038299;28;20045;-59
2023/04/20 11:47:24;;;;;;;7.63;6.20;;;13.10;99.90;;;;;;5019946;28;20487;-58
2023/04/20 11:49:50;;;;;;;7.60;5.70;;;13.00;99.90;;;;;;5038773;28;20041;-59
2023/04/20 11:52:16;;;;;;;7.57;6.05;;;12.80;99.90;;;;;;5037296;28;20120;-59
2023/04/20 11:54:42;;;;;;;9.75;6.38;;;13.10;99.90;;;;;;5038738;28;20041;-58
2023/04/20 11:57:07;;;;;;;8.73;6.18;;;13.30;99.90;;;;;;5038011;28;20120;-58
2023/04/20 11:59:33;;;;;;;10.20;6.93;;;13.50;99.90;;;;;;5038100;28;20050;-59
2023/04/20 12:02:02;;;;;;;7.90;6.32;;;13.40;99.90;;;;;;5037988;28;20037;-58
2023/04/20 12:04:30;;;;;;;8.85;6.43;;;13.20;99.90;;;;;;5036733;28;20107;-59
2023/04/20 12:06:58;;;;;;;11.93;6.63;;;13.00;99.90;;;;;;5039239;28;20049;-58
2023/04/20 12:09:25;;;;;;;9.35;6.05;;;12.80;99.90;;;;;;5042394;28;20076;-59
2023/04/20 12:11:50;;;;;;;11.65;6.63;;;12.50;99.90;;;;;;5024484;28;20132;-58
2023/04/20 12:14:16;;;;;;;10.52;6.95;;;12.40;99.90;;;;;;5040982;28;20100;-59
2023/04/20 12:16:42;;;;;;;11.18;7.22;;;12.20;99.90;;;;;;5039302;28;20069;-59
2023/04/20 12:19:08;;;;;;;10.38;7.20;;;12.40;99.90;;;;;;5041735;28;20048;-59
2023/04/20 12:21:34;;;;;;;8.75;6.88;;;12.50;99.90;;;;;;5042291;28;20049;-58
2023/04/20 12:23:59;;;;;;;9.55;7.15;;;12.60;99.90;;;;;;5041799;28;20060;-59
2023/04/20 12:26:25;;;;;;;9.00;6.70;;;12.80;99.90;;;;;;5041015;28;20045;-57
2023/04/20 12:28:51;;;;;;;10.70;6.05;;;13.00;99.90;;;;;;5042050;28;20045;-58
2023/04/20 12:31:17;;;;;;;9.65;6.43;;;13.00;99.90;;;;;;5041348;28;20041;-58
2023/04/20 12:33:43;;;;;;;7.85;5.32;;;12.90;99.90;;;;;;5041947;28;20077;-58
2023/04/20 12:36:09;;;;;;;8.30;5.88;;;13.20;99.90;;;;;;5021569;28;20109;-58
2023/04/20 12:38:35;;;;;;;10.05;5.40;;;13.50;99.90;;;;;;5013201;28;20045;-60
2023/04/20 12:41:03;;;;;;;9.60;6.43;;;13.70;99.90;;;;;;5041566;28;20411;-58
2023/04/20 12:43:30;;;;;;;9.70;7.05;;;13.90;99.90;;;;;;5039428;28;20132;-58
2023/04/20 12:45:56;;;;;;;8.77;6.32;;;13.90;99.90;;;;;;5041947;28;20105;-59
2023/04/20 12:48:21;;;;;;;9.38;7.00;;;13.60;99.90;;;;;;5021579;28;20042;-58
2023/04/20 12:50:47;;;;;;;8.90;6.88;;;13.50;99.90;;;;;;5040589;28;20048;-58
2023/04/20 12:53:13;;;;;;;9.50;6.50;;;13.30;99.90;;;;;;5040158;28;20496;-58